Time;durP1;ratioP1;P1;durP2;ratioP2;P2;SDS_P1;SDS_P2;PMS_P1;PMS_P2;Temp;Humidity;BMP_temperature;BMP_pressure;BME280_temperature;BME280_humidity;BME280_pressure;Samples;Min_cycle;Max_cycle;Signal;HPM_P1;HPM_P2
2023/08/28 00:02:19;;;;;;;3.73;3.30;;;14.50;99.90;;;;;;5046832;28;20432;-71
2023/08/28 00:04:44;;;;;;;3.57;3.30;;;14.40;99.90;;;;;;5047919;28;20177;-72
2023/08/28 00:07:10;;;;;;;3.60;3.27;;;14.40;99.90;;;;;;5046260;28;20200;-72
2023/08/28 00:09:38;;;;;;;3.77;3.27;;;14.40;99.90;;;;;;5046960;28;20198;-71
2023/08/28 00:12:04;;;;;;;3.60;3.30;;;14.40;99.90;;;;;;5047811;28;20408;-71
2023/08/28 00:14:30;;;;;;;3.53;2.60;;;14.40;99.90;;;;;;5047901;28;20941;-71
2023/08/28 00:16:56;;;;;;;4.43;3.83;;;14.40;99.90;;;;;;5045930;28;20419;-71
2023/08/28 00:19:21;;;;;;;3.70;3.13;;;14.30;99.90;;;;;;5047674;28;20425;-71
2023/08/28 00:21:47;;;;;;;3.93;3.63;;;14.20;99.90;;;;;;5046713;28;20228;-71
2023/08/28 00:24:13;;;;;;;4.40;3.03;;;14.20;99.90;;;;;;5047762;28;21001;-71
2023/08/28 00:26:39;;;;;;;4.40;3.37;;;14.20;99.90;;;;;;5046945;28;20277;-71
2023/08/28 00:29:04;;;;;;;3.40;3.10;;;14.30;99.90;;;;;;5047738;28;20660;-71
2023/08/28 00:31:30;;;;;;;3.93;3.57;;;14.30;99.90;;;;;;5047526;28;20281;-71
2023/08/28 00:33:56;;;;;;;2.87;2.67;;;14.30;99.90;;;;;;5047845;28;20201;-71
2023/08/28 00:36:21;;;;;;;4.00;3.60;;;14.20;99.90;;;;;;5047207;28;20566;-71
2023/08/28 00:38:47;;;;;;;4.77;2.80;;;14.30;99.90;;;;;;5047236;28;20602;-71
2023/08/28 00:41:13;;;;;;;3.57;3.27;;;14.20;99.90;;;;;;5047957;28;20180;-71
2023/08/28 00:43:38;;;;;;;4.50;3.50;;;14.20;99.90;;;;;;5046442;28;20561;-71
2023/08/28 00:46:05;;;;;;;4.20;2.90;;;14.20;99.90;;;;;;5046872;28;20178;-71
2023/08/28 00:48:32;;;;;;;4.40;2.90;;;14.20;99.90;;;;;;5047278;28;20697;-72
2023/08/28 00:51:00;;;;;;;3.30;3.00;;;14.20;99.90;;;;;;5047906;28;20408;-71
2023/08/28 00:53:26;;;;;;;3.87;3.30;;;14.20;99.90;;;;;;5047843;28;20577;-71
2023/08/28 00:55:53;;;;;;;3.23;2.93;;;14.20;99.90;;;;;;5047596;28;20610;-71
2023/08/28 00:58:19;;;;;;;3.43;3.13;;;14.20;99.90;;;;;;5047209;28;20432;-71
2023/08/28 01:00:44;;;;;;;3.20;2.90;;;14.20;99.90;;;;;;5047103;28;21087;-71
2023/08/28 01:03:10;;;;;;;2.93;2.73;;;14.20;99.90;;;;;;5047961;28;20927;-71
2023/08/28 01:06:00;;;;;;;3.43;3.13;;;14.20;99.90;;;;;;5048502;28;20176;-72
2023/08/28 01:08:49;;;;;;;2.90;2.70;;;14.30;99.90;;;;;;5066944;28;20217;-71
2023/08/28 01:11:30;;;;;;;3.70;3.40;;;14.20;99.90;;;;;;5063657;28;20408;-71
2023/08/28 01:14:26;;;;;;;4.20;3.90;;;14.30;99.90;;;;;;5053441;28;20443;-71
2023/08/28 01:16:56;;;;;;;3.90;3.60;;;14.20;99.90;;;;;;5047604;28;20423;-72
2023/08/28 01:19:43;;;;;;;4.10;3.80;;;14.20;99.90;;;;;;5047794;28;20435;-71
2023/08/28 01:22:28;;;;;;;4.63;4.23;;;14.20;99.90;;;;;;5047649;28;20419;-71
2023/08/28 01:25:07;;;;;;;4.20;3.83;;;14.10;99.90;;;;;;5045904;28;20412;-71
2023/08/28 01:27:33;;;;;;;5.00;4.60;;;14.10;99.90;;;;;;5046825;28;20907;-71
2023/08/28 01:30:15;;;;;;;3.70;3.40;;;14.10;99.90;;;;;;5046786;28;20490;-71
2023/08/28 01:32:43;;;;;;;5.07;4.57;;;14.20;99.90;;;;;;5047191;28;20427;-71
2023/08/28 01:35:26;;;;;;;5.27;4.87;;;14.20;99.90;;;;;;5047301;28;20452;-71
2023/08/28 01:38:19;;;;;;;5.10;4.70;;;14.20;99.90;;;;;;5050062;28;20698;-71
2023/08/28 01:41:06;;;;;;;4.40;4.10;;;14.10;99.90;;;;;;5051031;28;20427;-71
2023/08/28 01:43:36;;;;;;;5.33;4.83;;;14.20;99.90;;;;;;5049670;28;20415;-71
2023/08/28 01:46:03;;;;;;;4.77;4.37;;;14.10;99.90;;;;;;5049174;28;20454;-71
2023/08/28 01:48:29;;;;;;;5.50;4.63;;;14.00;99.90;;;;;;5050366;28;20427;-71
2023/08/28 01:50:55;;;;;;;5.33;4.87;;;14.00;99.90;;;;;;5050536;28;20495;-71
2023/08/28 01:53:22;;;;;;;5.20;4.80;;;14.00;99.90;;;;;;5050842;28;20352;-71
2023/08/28 01:56:06;;;;;;;5.50;5.10;;;14.00;99.90;;;;;;5050396;28;20408;-71
2023/08/28 01:58:34;;;;;;;5.47;4.90;;;14.00;99.90;;;;;;5049910;28;20421;-71
2023/08/28 02:00:59;;;;;;;6.73;5.70;;;13.90;99.90;;;;;;5050160;28;20440;-71
2023/08/28 02:03:25;;;;;;;6.03;5.53;;;13.90;99.90;;;;;;5050712;28;20828;-71
2023/08/28 02:05:51;;;;;;;5.97;5.40;;;13.90;99.90;;;;;;5049889;28;20189;-71
2023/08/28 02:08:16;;;;;;;5.73;5.23;;;13.90;99.90;;;;;;5049794;28;20204;-71
2023/08/28 02:10:42;;;;;;;6.23;5.73;;;13.90;99.90;;;;;;5050419;28;20308;-71
2023/08/28 02:13:08;;;;;;;5.87;5.37;;;13.80;99.90;;;;;;5048831;28;20178;-71
2023/08/28 02:15:33;;;;;;;5.37;4.87;;;13.80;99.90;;;;;;5049142;28;20219;-71
2023/08/28 02:17:59;;;;;;;6.30;5.33;;;13.80;99.90;;;;;;5049560;28;20178;-71
2023/08/28 02:20:25;;;;;;;5.67;5.07;;;13.70;99.90;;;;;;5050327;28;20235;-71
2023/08/28 02:22:50;;;;;;;5.13;4.63;;;13.70;99.90;;;;;;5050523;28;20209;-71
2023/08/28 02:25:20;;;;;;;6.30;5.70;;;13.60;99.90;;;;;;5049673;28;20232;-71
2023/08/28 02:27:46;;;;;;;6.13;5.53;;;13.60;99.90;;;;;;5048334;28;20181;-70
2023/08/28 02:30:12;;;;;;;7.23;5.47;;;13.60;99.90;;;;;;5050013;28;20418;-71
2023/08/28 02:32:37;;;;;;;7.80;5.60;;;13.70;99.90;;;;;;5050070;28;20464;-71
2023/08/28 02:35:04;;;;;;;6.27;5.77;;;13.70;99.90;;;;;;5049169;28;20531;-71
2023/08/28 02:37:29;;;;;;;5.60;5.20;;;13.70;99.90;;;;;;5048375;28;20256;-71
2023/08/28 02:39:55;;;;;;;6.03;5.50;;;13.70;99.90;;;;;;5049641;28;20906;-71
2023/08/28 02:42:21;;;;;;;6.40;5.80;;;13.60;99.90;;;;;;5049721;28;20704;-71
2023/08/28 02:44:46;;;;;;;6.10;5.60;;;13.50;99.90;;;;;;5047458;28;20546;-71
2023/08/28 02:47:12;;;;;;;9.77;6.17;;;13.50;99.90;;;;;;5048774;28;20189;-71
2023/08/28 02:49:38;;;;;;;6.13;5.60;;;13.50;99.90;;;;;;5049751;28;20221;-71
2023/08/28 02:52:03;;;;;;;7.00;6.40;;;13.50;99.90;;;;;;5048349;28;20177;-71
2023/08/28 02:54:29;;;;;;;6.40;5.80;;;13.50;99.90;;;;;;5049560;28;20201;-71
2023/08/28 02:56:55;;;;;;;5.43;5.03;;;13.60;99.90;;;;;;5048882;28;20408;-71
2023/08/28 02:59:20;;;;;;;6.50;5.60;;;13.60;99.90;;;;;;5047913;28;20190;-71
2023/08/28 03:01:46;;;;;;;6.60;6.10;;;13.70;99.90;;;;;;5048228;28;20173;-70
2023/08/28 03:04:12;;;;;;;6.47;5.87;;;13.70;99.90;;;;;;5048424;28;20713;-71
2023/08/28 03:06:38;;;;;;;7.47;6.60;;;13.70;99.90;;;;;;5046838;28;20213;-71
2023/08/28 03:09:05;;;;;;;6.93;6.23;;;13.80;99.90;;;;;;5049028;28;20189;-71
2023/08/28 03:11:30;;;;;;;6.33;5.80;;;13.80;99.90;;;;;;5049222;28;20456;-71
2023/08/28 03:13:56;;;;;;;6.17;5.57;;;13.70;99.90;;;;;;5049111;28;20487;-71
2023/08/28 03:16:22;;;;;;;7.10;6.50;;;13.70;99.90;;;;;;5046989;28;20554;-71
2023/08/28 03:18:48;;;;;;;6.60;6.00;;;13.70;99.90;;;;;;5047503;28;20200;-71
2023/08/28 03:21:14;;;;;;;6.57;5.97;;;13.70;99.90;;;;;;5047963;28;20201;-71
2023/08/28 03:23:40;;;;;;;7.63;6.10;;;13.60;99.90;;;;;;5048800;28;20510;-71
2023/08/28 03:26:06;;;;;;;6.00;5.50;;;13.60;99.90;;;;;;5048758;28;20419;-70
2023/08/28 03:28:32;;;;;;;6.73;6.13;;;13.60;99.90;;;;;;5048044;28;20929;-71
2023/08/28 03:30:59;;;;;;;7.20;6.53;;;13.60;99.90;;;;;;5048588;28;20474;-71
2023/08/28 03:33:25;;;;;;;7.70;7.00;;;13.60;99.90;;;;;;5049075;28;20740;-71
2023/08/28 03:35:51;;;;;;;7.50;6.80;;;13.60;99.90;;;;;;5047088;28;20408;-70
2023/08/28 03:38:18;;;;;;;7.63;6.83;;;13.60;99.90;;;;;;5048291;28;20429;-70
2023/08/28 03:40:44;;;;;;;7.27;6.60;;;13.60;99.90;;;;;;5048544;28;20558;-71
2023/08/28 03:43:11;;;;;;;7.53;6.77;;;13.60;99.90;;;;;;5048706;28;20960;-70
2023/08/28 03:45:37;;;;;;;6.97;6.37;;;13.60;99.90;;;;;;5046334;28;20921;-71
2023/08/28 03:48:03;;;;;;;7.40;6.70;;;13.60;99.90;;;;;;5048337;28;20432;-70
2023/08/28 03:50:30;;;;;;;6.70;6.10;;;13.60;99.90;;;;;;5048770;28;20417;-70
2023/08/28 03:52:56;;;;;;;7.30;6.60;;;13.60;99.90;;;;;;5048493;28;20767;-70
2023/08/28 03:55:23;;;;;;;6.93;6.40;;;13.60;99.90;;;;;;5047521;28;20455;-70
2023/08/28 03:57:49;;;;;;;6.70;6.10;;;13.50;99.90;;;;;;5048161;28;20761;-71
2023/08/28 04:00:15;;;;;;;6.97;6.27;;;13.50;99.90;;;;;;5047097;28;20423;-70
2023/08/28 04:02:41;;;;;;;6.97;6.37;;;13.50;99.90;;;;;;5047352;28;20873;-70
2023/08/28 04:05:07;;;;;;;8.20;6.33;;;13.40;99.90;;;;;;5048636;28;20404;-71
2023/08/28 04:07:34;;;;;;;6.23;5.73;;;13.40;99.90;;;;;;5048376;28;20408;-70
2023/08/28 04:10:00;;;;;;;6.73;6.23;;;13.40;99.90;;;;;;5048749;28;20489;-70
2023/08/28 04:12:26;;;;;;;6.57;5.87;;;13.40;99.90;;;;;;5049186;28;20416;-71
2023/08/28 04:14:51;;;;;;;8.17;7.40;;;13.50;99.90;;;;;;5049450;28;20214;-70
2023/08/28 04:17:17;;;;;;;7.70;7.10;;;13.60;99.90;;;;;;5061159;28;20413;-71
2023/08/28 04:19:43;;;;;;;7.33;6.63;;;13.60;99.90;;;;;;5061634;28;20208;-71
2023/08/28 04:22:09;;;;;;;7.80;7.03;;;13.70;99.90;;;;;;5058674;28;20170;-71
2023/08/28 04:24:34;;;;;;;7.00;6.30;;;13.70;99.90;;;;;;5051652;28;20173;-71
2023/08/28 04:27:00;;;;;;;8.67;7.53;;;13.70;99.90;;;;;;5047755;28;20224;-71
2023/08/28 04:29:26;;;;;;;6.97;6.37;;;13.60;99.90;;;;;;5047899;28;20269;-71
2023/08/28 04:31:52;;;;;;;7.80;7.13;;;13.70;99.90;;;;;;5047004;28;20666;-71
2023/08/28 04:34:18;;;;;;;7.73;6.83;;;13.60;99.90;;;;;;5047573;28;20258;-71
2023/08/28 04:36:44;;;;;;;8.40;7.60;;;13.60;99.90;;;;;;5047568;28;20409;-71
2023/08/28 04:39:10;;;;;;;8.33;7.63;;;13.60;99.90;;;;;;5047481;28;20845;-71
2023/08/28 04:41:35;;;;;;;10.27;8.40;;;13.60;99.90;;;;;;5046408;28;20944;-71
2023/08/28 04:44:01;;;;;;;10.43;7.70;;;13.60;99.90;;;;;;5046622;28;20188;-71
2023/08/28 04:46:28;;;;;;;8.73;7.93;;;13.60;99.90;;;;;;5045739;28;20268;-71
2023/08/28 04:48:54;;;;;;;8.20;7.47;;;13.50;99.90;;;;;;5047527;28;20189;-71
2023/08/28 04:51:19;;;;;;;8.87;8.00;;;13.50;99.90;;;;;;5047475;28;20415;-71
2023/08/28 04:53:45;;;;;;;7.43;6.63;;;13.50;99.90;;;;;;5046507;28;20201;-71
2023/08/28 04:56:11;;;;;;;8.00;7.30;;;13.50;99.90;;;;;;5047367;28;20623;-71
2023/08/28 04:58:37;;;;;;;8.70;7.73;;;13.50;99.90;;;;;;5046779;28;20201;-72
2023/08/28 05:01:03;;;;;;;8.10;7.40;;;13.50;99.90;;;;;;5046396;28;20905;-71
2023/08/28 05:03:29;;;;;;;7.47;6.87;;;13.50;99.90;;;;;;5047269;28;20420;-71
2023/08/28 05:05:54;;;;;;;7.80;7.10;;;13.50;99.90;;;;;;5047460;28;20264;-71
2023/08/28 05:08:20;;;;;;;8.50;7.80;;;13.40;99.90;;;;;;5046935;28;20201;-71
2023/08/28 05:10:46;;;;;;;8.70;6.73;;;13.40;99.90;;;;;;5046360;28;20217;-72
2023/08/28 05:13:12;;;;;;;8.57;7.80;;;13.40;99.90;;;;;;5051692;28;20444;-71
2023/08/28 05:15:38;;;;;;;8.60;7.47;;;13.40;99.90;;;;;;5050997;28;20178;-71
2023/08/28 05:18:04;;;;;;;9.93;7.67;;;13.50;99.90;;;;;;5050816;28;20507;-71
2023/08/28 05:20:30;;;;;;;8.13;7.43;;;13.50;99.90;;;;;;5051337;28;20184;-71
2023/08/28 05:22:55;;;;;;;8.90;8.03;;;13.50;99.90;;;;;;5051319;28;20182;-71
2023/08/28 05:25:21;;;;;;;8.20;7.40;;;13.60;99.90;;;;;;5051152;28;20269;-71
2023/08/28 05:27:47;;;;;;;8.60;7.80;;;13.60;99.90;;;;;;5050318;28;20182;-70
2023/08/28 05:30:13;;;;;;;8.40;7.60;;;13.60;99.90;;;;;;5051160;28;20219;-71
2023/08/28 05:32:38;;;;;;;8.07;7.40;;;13.70;99.90;;;;;;5049628;28;20197;-71
2023/08/28 05:35:05;;;;;;;8.63;7.83;;;13.80;99.90;;;;;;5049451;28;20576;-71
2023/08/28 05:37:31;;;;;;;8.57;7.70;;;13.70;99.90;;;;;;5049453;28;20182;-71
2023/08/28 05:39:57;;;;;;;11.00;7.10;;;13.80;99.90;;;;;;5049421;28;20440;-70
2023/08/28 05:42:23;;;;;;;8.33;7.50;;;13.80;99.90;;;;;;5048442;28;20776;-71
2023/08/28 05:44:49;;;;;;;7.97;7.27;;;13.90;99.90;;;;;;5048267;28;20227;-71
2023/08/28 05:47:15;;;;;;;8.93;8.03;;;13.90;99.90;;;;;;5049144;28;20567;-71
2023/08/28 05:49:40;;;;;;;8.40;7.60;;;13.90;99.90;;;;;;5049431;28;20755;-71
2023/08/28 05:52:06;;;;;;;11.93;8.60;;;14.00;99.90;;;;;;5049611;28;20174;-71
2023/08/28 05:54:32;;;;;;;9.10;8.20;;;14.00;99.90;;;;;;5049517;28;20952;-72
2023/08/28 05:56:57;;;;;;;9.13;8.23;;;14.00;99.90;;;;;;5048629;28;20213;-71
2023/08/28 05:59:23;;;;;;;8.20;7.50;;;14.00;99.90;;;;;;5048108;28;20208;-72
2023/08/28 06:01:49;;;;;;;9.93;8.17;;;14.00;99.90;;;;;;5049651;28;20182;-72
2023/08/28 06:04:14;;;;;;;13.20;8.30;;;14.00;99.90;;;;;;5049029;28;20253;-73
2023/08/28 06:06:40;;;;;;;8.80;8.00;;;14.10;99.90;;;;;;5048531;28;21430;-72
2023/08/28 06:09:07;;;;;;;8.33;7.63;;;14.20;99.90;;;;;;5047549;28;20193;-72
2023/08/28 06:11:33;;;;;;;9.13;8.30;;;14.40;99.90;;;;;;5049376;28;20178;-72
2023/08/28 06:14:00;;;;;;;9.13;8.23;;;14.50;99.90;;;;;;5049167;28;20521;-72
2023/08/28 06:16:26;;;;;;;8.37;7.57;;;14.70;99.90;;;;;;5046901;28;20404;-72
2023/08/28 06:18:52;;;;;;;9.23;8.47;;;14.80;99.90;;;;;;5049016;28;20425;-72
2023/08/28 06:21:17;;;;;;;8.93;8.13;;;15.00;99.90;;;;;;5048954;28;20409;-72
2023/08/28 06:23:43;;;;;;;7.90;7.30;;;14.90;99.90;;;;;;5047565;28;20193;-72
2023/08/28 06:26:09;;;;;;;7.70;7.00;;;15.10;99.90;;;;;;5048543;28;20189;-72
2023/08/28 06:28:34;;;;;;;8.33;7.53;;;15.20;99.90;;;;;;5048023;28;20201;-72
2023/08/28 06:31:03;;;;;;;8.17;7.37;;;15.40;99.90;;;;;;5010660;28;1103235;-72
2023/08/28 06:33:29;;;;;;;9.80;8.60;;;15.50;99.90;;;;;;5049854;28;20746;-72
2023/08/28 06:35:55;;;;;;;8.40;7.43;;;15.60;99.90;;;;;;5049676;28;20415;-72
2023/08/28 06:38:21;;;;;;;10.40;8.30;;;15.70;99.90;;;;;;5047865;28;20208;-72
2023/08/28 06:40:51;;;;;;;8.40;7.60;;;15.80;99.90;;;;;;5049893;28;20260;-72
2023/08/28 06:43:17;;;;;;;8.80;7.90;;;15.90;99.90;;;;;;5048534;28;20185;-72
2023/08/28 06:45:45;;;;;;;10.60;8.10;;;16.10;99.90;;;;;;5048639;28;20479;-72
2023/08/28 06:48:11;;;;;;;10.13;9.00;;;16.20;99.90;;;;;;5047858;28;20202;-72
2023/08/28 06:50:37;;;;;;;9.37;8.37;;;16.20;99.90;;;;;;5049605;28;20419;-72
2023/08/28 06:53:03;;;;;;;8.60;7.80;;;16.20;99.90;;;;;;5049898;28;20447;-72
2023/08/28 06:55:29;;;;;;;13.57;10.70;;;16.20;99.90;;;;;;5049170;28;20956;-72
2023/08/28 06:57:55;;;;;;;9.20;8.30;;;16.20;99.90;;;;;;5048885;28;20415;-72
2023/08/28 07:00:21;;;;;;;9.40;8.57;;;16.30;99.90;;;;;;5049481;28;20404;-72
2023/08/28 07:02:47;;;;;;;9.70;8.73;;;16.40;99.90;;;;;;5049711;28;20519;-72
2023/08/28 07:05:13;;;;;;;9.60;8.60;;;16.50;99.90;;;;;;5049281;28;20415;-72
2023/08/28 07:07:39;;;;;;;10.33;9.20;;;16.50;99.90;;;;;;5048931;28;20428;-72
2023/08/28 07:10:06;;;;;;;9.50;8.53;;;16.30;99.90;;;;;;5049543;28;20442;-72
2023/08/28 07:12:33;;;;;;;11.17;9.67;;;16.20;99.90;;;;;;5049702;28;20188;-72
2023/08/28 07:15:11;;;;;;;10.87;9.70;;;16.20;99.90;;;;;;5048813;28;20468;-72
2023/08/28 07:17:37;;;;;;;10.50;9.40;;;16.20;99.90;;;;;;5048980;28;20420;-72
2023/08/28 07:20:04;;;;;;;10.00;9.00;;;16.30;99.90;;;;;;5049419;28;20444;-72
2023/08/28 07:22:30;;;;;;;8.97;8.13;;;16.40;99.90;;;;;;5049382;28;20411;-72
2023/08/28 07:24:56;;;;;;;9.97;9.03;;;16.50;99.90;;;;;;5052384;28;20462;-72
2023/08/28 07:27:22;;;;;;;8.90;7.97;;;16.60;99.90;;;;;;5066547;28;20440;-72
2023/08/28 07:29:48;;;;;;;10.43;8.70;;;16.70;99.90;;;;;;5061068;28;20204;-72
2023/08/28 07:32:13;;;;;;;9.80;8.60;;;16.70;99.90;;;;;;5057306;28;20591;-73
2023/08/28 07:34:39;;;;;;;9.77;8.77;;;16.70;99.90;;;;;;5048169;28;20205;-72
2023/08/28 07:37:05;;;;;;;10.60;9.10;;;16.80;99.90;;;;;;5047898;28;20170;-72
2023/08/28 07:39:31;;;;;;;9.50;8.37;;;16.80;99.90;;;;;;5049008;28;20197;-73
2023/08/28 07:41:57;;;;;;;10.10;8.57;;;16.80;99.90;;;;;;5049099;28;20178;-72
2023/08/28 07:44:23;;;;;;;10.20;9.30;;;16.80;99.90;;;;;;5048836;28;20554;-72
2023/08/28 07:46:49;;;;;;;9.27;8.13;;;16.70;99.90;;;;;;5045456;28;20423;-72
2023/08/28 07:49:15;;;;;;;11.37;9.47;;;16.70;99.90;;;;;;5048725;28;20432;-72
2023/08/28 07:51:40;;;;;;;9.17;8.30;;;16.80;99.90;;;;;;5048525;28;20205;-73
2023/08/28 07:54:06;;;;;;;10.07;8.97;;;16.70;99.90;;;;;;5048258;28;20817;-72
2023/08/28 07:56:32;;;;;;;10.50;8.20;;;16.70;99.90;;;;;;5046293;28;20186;-72
2023/08/28 07:58:58;;;;;;;10.40;9.40;;;16.80;99.90;;;;;;5048199;28;20198;-73
2023/08/28 08:01:23;;;;;;;9.87;8.90;;;16.80;99.90;;;;;;5045587;28;20259;-72
2023/08/28 08:03:49;;;;;;;10.57;8.93;;;16.80;99.90;;;;;;5048512;28;20777;-72
2023/08/28 08:06:16;;;;;;;10.20;9.20;;;16.90;99.90;;;;;;5047747;28;20634;-72
2023/08/28 08:08:45;;;;;;;10.30;9.17;;;16.80;99.90;;;;;;5047429;28;20944;-72
2023/08/28 08:11:11;;;;;;;9.40;8.50;;;16.80;99.90;;;;;;5048261;28;21160;-73
2023/08/28 08:13:37;;;;;;;9.30;8.37;;;16.90;99.90;;;;;;5048236;28;20975;-73
2023/08/28 08:16:04;;;;;;;9.10;7.27;;;16.90;99.90;;;;;;5047537;28;20419;-72
2023/08/28 08:18:30;;;;;;;9.50;8.60;;;17.00;99.90;;;;;;5047549;28;20506;-73
2023/08/28 08:20:56;;;;;;;8.03;7.33;;;17.10;99.90;;;;;;5048033;28;20435;-72
2023/08/28 08:23:22;;;;;;;10.57;7.80;;;17.10;99.90;;;;;;5047962;28;20773;-72
2023/08/28 08:25:48;;;;;;;9.67;8.77;;;17.20;99.90;;;;;;5046499;28;20416;-72
2023/08/28 08:28:15;;;;;;;11.10;7.40;;;17.30;99.90;;;;;;5046823;28;20441;-72
2023/08/28 08:30:41;;;;;;;7.60;6.73;;;17.20;99.90;;;;;;5047593;28;20432;-72
2023/08/28 08:33:07;;;;;;;7.73;6.20;;;17.20;99.90;;;;;;5046796;28;20908;-73
2023/08/28 08:35:36;;;;;;;6.90;5.93;;;17.30;99.90;;;;;;5047633;28;20532;-72
2023/08/28 08:38:02;;;;;;;6.63;6.03;;;17.20;99.90;;;;;;5047038;28;20223;-72
2023/08/28 08:40:28;;;;;;;6.13;5.60;;;17.20;99.90;;;;;;5047765;28;20409;-72
2023/08/28 08:42:54;;;;;;;9.70;6.10;;;17.20;99.90;;;;;;5047956;28;20178;-73
2023/08/28 08:45:26;;;;;;;8.70;8.00;;;17.30;99.90;;;;;;5045881;28;20186;-72
2023/08/28 08:47:53;;;;;;;7.03;5.90;;;17.30;99.90;;;;;;5047463;28;20495;-72
2023/08/28 08:50:22;;;;;;;8.30;6.10;;;17.20;99.90;;;;;;5046055;28;20474;-72
2023/08/28 08:52:49;;;;;;;6.67;6.07;;;17.30;99.90;;;;;;5048311;28;20408;-72
2023/08/28 08:55:45;;;;;;;7.10;6.43;;;17.40;99.90;;;;;;5047226;28;20452;-72
2023/08/28 08:58:15;;;;;;;9.90;5.33;;;17.50;99.90;;;;;;5047274;28;20531;-72
2023/08/28 09:00:43;;;;;;;7.30;6.60;;;17.50;99.90;;;;;;5045500;28;20404;-72
2023/08/28 09:03:10;;;;;;;5.47;4.97;;;17.50;99.90;;;;;;5047971;28;20454;-72
2023/08/28 09:05:36;;;;;;;7.00;6.30;;;17.50;99.90;;;;;;5047358;28;20499;-72
2023/08/28 09:08:06;;;;;;;6.07;5.47;;;17.50;99.90;;;;;;5046876;28;20526;-72
2023/08/28 09:10:32;;;;;;;5.77;5.00;;;17.40;99.90;;;;;;5047551;28;20416;-72
2023/08/28 09:12:58;;;;;;;7.47;6.10;;;17.40;99.90;;;;;;5047393;28;20447;-72
2023/08/28 09:15:24;;;;;;;6.63;5.30;;;17.50;99.90;;;;;;5047278;28;20868;-73
2023/08/28 09:17:51;;;;;;;9.30;6.30;;;17.60;99.90;;;;;;5046540;28;20228;-73
2023/08/28 09:20:19;;;;;;;5.83;5.23;;;17.60;99.90;;;;;;5046324;28;20658;-72
2023/08/28 09:22:51;;;;;;;6.90;5.87;;;17.70;99.90;;;;;;5046302;28;20939;-73
2023/08/28 09:25:17;;;;;;;6.70;6.17;;;17.80;99.90;;;;;;5047121;28;20456;-73
2023/08/28 09:27:44;;;;;;;7.57;6.17;;;17.90;99.90;;;;;;5046579;28;20897;-72
2023/08/28 09:30:25;;;;;;;7.63;5.77;;;18.00;99.90;;;;;;5046171;28;20466;-72
2023/08/28 09:32:51;;;;;;;9.20;6.47;;;18.00;99.90;;;;;;5047041;28;20908;-73
2023/08/28 09:35:20;;;;;;;7.97;6.07;;;18.00;99.90;;;;;;5047032;28;20452;-72
2023/08/28 09:37:55;;;;;;;6.83;6.20;;;18.00;99.90;;;;;;5046228;28;20495;-72
2023/08/28 09:40:32;;;;;;;8.00;6.83;;;18.10;99.90;;;;;;5047380;28;20408;-72
2023/08/28 09:42:58;;;;;;;5.43;5.03;;;18.10;99.90;;;;;;5047322;28;20420;-72
2023/08/28 09:45:34;;;;;;;6.73;6.07;;;18.20;99.90;;;;;;5045898;28;20942;-72
2023/08/28 09:48:04;;;;;;;6.77;6.10;;;18.20;99.90;;;;;;5046616;28;20511;-72
2023/08/28 09:50:31;;;;;;;6.03;5.43;;;18.20;99.90;;;;;;5047118;28;20404;-72
2023/08/28 09:53:09;;;;;;;6.40;5.80;;;18.10;99.90;;;;;;5047254;28;20945;-72
2023/08/28 09:55:52;;;;;;;7.13;6.17;;;18.10;99.90;;;;;;5046977;28;20517;-72
2023/08/28 09:58:18;;;;;;;6.43;5.93;;;18.10;99.90;;;;;;5049063;28;20436;-73
2023/08/28 10:00:44;;;;;;;7.10;6.40;;;18.10;99.90;;;;;;5049732;28;20423;-72
2023/08/28 10:03:11;;;;;;;7.13;6.63;;;18.20;99.90;;;;;;5050388;28;20499;-72
2023/08/28 10:05:39;;;;;;;7.40;6.90;;;18.30;99.90;;;;;;5050693;28;20193;-72
2023/08/28 10:08:09;;;;;;;7.60;7.00;;;18.40;99.90;;;;;;5049735;28;20466;-72
2023/08/28 10:10:37;;;;;;;6.60;6.00;;;18.40;99.90;;;;;;5049290;28;20416;-72
2023/08/28 10:13:04;;;;;;;8.00;7.20;;;18.40;99.90;;;;;;5050382;28;20474;-72
2023/08/28 10:15:31;;;;;;;7.53;6.83;;;18.50;99.90;;;;;;5049445;28;20460;-72
2023/08/28 10:18:06;;;;;;;6.00;5.50;;;18.50;99.90;;;;;;5048798;28;20409;-72
2023/08/28 10:20:34;;;;;;;6.80;6.30;;;18.50;99.90;;;;;;5050722;28;20901;-72
2023/08/28 10:23:01;;;;;;;7.33;6.73;;;18.40;99.90;;;;;;5050706;28;21083;-72
2023/08/28 10:25:29;;;;;;;7.57;6.97;;;18.40;99.90;;;;;;5050283;28;20511;-72
2023/08/28 10:27:58;;;;;;;7.77;7.17;;;18.50;99.90;;;;;;5050035;28;20800;-72
2023/08/28 10:30:26;;;;;;;8.00;7.30;;;18.50;99.90;;;;;;5050727;28;20459;-73
2023/08/28 10:32:55;;;;;;;7.70;7.00;;;18.50;99.90;;;;;;5050168;28;20802;-72
2023/08/28 10:35:22;;;;;;;7.70;7.10;;;18.50;99.90;;;;;;5060976;28;20582;-73
2023/08/28 10:37:50;;;;;;;8.87;8.03;;;18.50;99.90;;;;;;5059675;28;20416;-72
2023/08/28 10:40:18;;;;;;;8.37;7.67;;;18.60;99.90;;;;;;5058791;28;20419;-72
2023/08/28 10:42:45;;;;;;;8.40;7.80;;;18.60;99.90;;;;;;5053592;28;20496;-73
2023/08/28 10:45:11;;;;;;;8.30;7.70;;;18.60;99.90;;;;;;5049954;28;20783;-72
2023/08/28 10:47:39;;;;;;;9.20;8.40;;;18.70;99.90;;;;;;5048284;28;20424;-73
2023/08/28 10:50:06;;;;;;;8.27;7.50;;;18.70;99.90;;;;;;5048677;28;20281;-72
2023/08/28 10:52:31;;;;;;;8.37;7.60;;;18.70;99.90;;;;;;5049699;28;20416;-72
2023/08/28 10:55:05;;;;;;;8.10;7.30;;;18.70;99.90;;;;;;5049463;28;20850;-72
2023/08/28 10:57:31;;;;;;;7.53;6.47;;;18.70;99.90;;;;;;5049048;28;20174;-72
2023/08/28 11:00:13;;;;;;;8.43;6.60;;;18.80;99.90;;;;;;5048904;28;20907;-72
2023/08/28 11:03:01;;;;;;;11.47;8.60;;;19.00;99.90;;;;;;5049602;28;20216;-72
2023/08/28 11:05:27;;;;;;;7.90;7.07;;;18.90;99.90;;;;;;5047793;28;20424;-73
2023/08/28 11:07:54;;;;;;;6.87;6.17;;;18.90;99.90;;;;;;5046939;28;20423;-72
2023/08/28 11:10:21;;;;;;;6.83;6.33;;;19.00;99.90;;;;;;5047247;28;20253;-72
2023/08/28 11:12:54;;;;;;;7.67;6.97;;;19.00;99.90;;;;;;5049202;28;20408;-73
2023/08/28 11:15:31;;;;;;;8.70;7.27;;;19.10;99.90;;;;;;5048999;28;20466;-72
2023/08/28 11:18:28;;;;;;;8.53;7.73;;;19.10;99.90;;;;;;5048815;28;21102;-72
2023/08/28 11:21:06;;;;;;;10.63;9.53;;;19.10;99.90;;;;;;5049555;28;20444;-72
2023/08/28 11:23:42;;;;;;;10.10;8.70;;;19.00;99.90;;;;;;5047977;28;20458;-73
2023/08/28 11:26:17;;;;;;;9.50;8.70;;;18.90;99.90;;;;;;5048893;28;20405;-72
2023/08/28 11:28:47;;;;;;;10.23;9.33;;;19.00;99.90;;;;;;5046706;28;20438;-73
2023/08/28 11:31:14;;;;;;;10.63;9.67;;;18.90;99.90;;;;;;5049049;28;20428;-72
2023/08/28 11:33:40;;;;;;;11.57;10.37;;;18.90;99.90;;;;;;5048717;28;20455;-72
2023/08/28 11:36:08;;;;;;;10.20;9.17;;;19.00;99.90;;;;;;5047492;28;20412;-72
2023/08/28 11:38:35;;;;;;;10.50;9.53;;;19.10;99.90;;;;;;5046811;28;20428;-72
2023/08/28 11:41:08;;;;;;;11.23;9.07;;;19.20;99.90;;;;;;5048763;28;20446;-73
2023/08/28 11:43:39;;;;;;;10.90;8.40;;;19.20;99.90;;;;;;5048768;28;20413;-72
2023/08/28 11:46:06;;;;;;;8.90;8.10;;;19.10;99.90;;;;;;5047116;28;20421;-72
2023/08/28 11:48:33;;;;;;;12.13;10.27;;;19.20;99.90;;;;;;5044987;28;20523;-73
2023/08/28 11:51:00;;;;;;;8.93;8.03;;;19.30;99.90;;;;;;5047677;28;20420;-72
2023/08/28 11:53:34;;;;;;;7.67;7.00;;;19.40;99.90;;;;;;5048359;28;20496;-72
2023/08/28 11:56:01;;;;;;;7.67;7.03;;;19.50;99.90;;;;;;5048528;28;20416;-72
2023/08/28 11:58:27;;;;;;;9.23;8.43;;;19.60;99.90;;;;;;5046387;28;20432;-72
2023/08/28 12:00:53;;;;;;;10.67;9.63;;;19.70;99.90;;;;;;5047656;28;20451;-72
2023/08/28 12:03:19;;;;;;;9.70;8.80;;;19.50;99.90;;;;;;5048399;28;20831;-72
2023/08/28 12:05:45;;;;;;;9.50;8.30;;;19.40;99.90;;;;;;5046654;28;20795;-72
2023/08/28 12:08:12;;;;;;;9.50;8.70;;;19.40;99.90;;;;;;5047640;28;20428;-72
2023/08/28 12:10:38;;;;;;;9.80;8.90;;;19.40;99.90;;;;;;5047919;28;20416;-72
2023/08/28 12:13:05;;;;;;;9.97;9.07;;;19.40;99.90;;;;;;5048360;28;20420;-72
2023/08/28 12:15:31;;;;;;;9.67;8.67;;;19.40;99.90;;;;;;5047934;28;21021;-72
2023/08/28 12:18:04;;;;;;;11.13;10.03;;;19.50;99.90;;;;;;5047309;28;20418;-73
2023/08/28 12:20:31;;;;;;;12.07;9.70;;;19.50;99.90;;;;;;5047813;28;20408;-72
2023/08/28 12:22:58;;;;;;;11.03;9.93;;;19.50;99.90;;;;;;5048027;28;20905;-72
2023/08/28 12:25:34;;;;;;;10.80;8.80;;;19.50;99.90;;;;;;5047891;28;20507;-72
2023/08/28 12:28:08;;;;;;;9.03;8.13;;;19.60;99.90;;;;;;5047411;28;21053;-72
2023/08/28 12:30:39;;;;;;;10.33;9.20;;;19.70;99.90;;;;;;5047533;28;20919;-72
2023/08/28 12:33:05;;;;;;;9.57;8.57;;;19.70;99.90;;;;;;5048087;28;20783;-72
2023/08/28 12:35:39;;;;;;;10.73;9.70;;;19.70;99.90;;;;;;5045908;28;20448;-72
2023/08/28 12:38:05;;;;;;;9.47;8.57;;;19.70;99.90;;;;;;5047212;28;20448;-72
2023/08/28 12:40:40;;;;;;;9.30;8.50;;;19.70;99.90;;;;;;5046338;28;21174;-72
2023/08/28 12:43:10;;;;;;;8.50;7.80;;;19.70;99.90;;;;;;5047830;28;20766;-72
2023/08/28 12:45:36;;;;;;;9.80;8.17;;;19.90;99.90;;;;;;5046194;28;20420;-72
2023/08/28 12:48:02;;;;;;;7.17;6.57;;;20.00;99.90;;;;;;5047125;28;20419;-72
2023/08/28 12:50:28;;;;;;;7.53;6.83;;;20.10;99.90;;;;;;5047482;28;20178;-72